Time;durP1;ratioP1;P1;durP2;ratioP2;P2;SDS_P1;SDS_P2;PMS_P1;PMS_P2;Temp;Humidity;BMP_temperature;BMP_pressure;BME280_temperature;BME280_humidity;BME280_pressure;Samples;Min_cycle;Max_cycle;Signal;HPM_P1;HPM_P2
2021/10/11 00:00:23;;;;;;;16.45;8.65;;;;;;;3.18;86.13;98859.84;4990992;28;20351;-60
2021/10/11 00:02:49;;;;;;;19.92;9.48;;;;;;;3.31;85.34;98856.47;4991527;28;20041;-63
2021/10/11 00:05:16;;;;;;;17.65;9.15;;;;;;;3.25;85.83;98857.31;4989075;28;20030;-59
2021/10/11 00:07:41;;;;;;;17.33;9.18;;;;;;;3.08;85.21;98851.25;4990195;28;20022;-61
2021/10/11 00:10:08;;;;;;;20.58;9.43;;;;;;;3.06;85.80;98852.97;4991195;28;20030;-62
2021/10/11 00:12:34;;;;;;;20.92;9.82;;;;;;;3.06;85.82;98853.81;4990011;28;20028;-61
2021/10/11 00:15:00;;;;;;;17.63;9.00;;;;;;;3.02;85.96;98846.94;4990156;28;20054;-60
2021/10/11 00:17:25;;;;;;;14.77;8.88;;;;;;;3.15;85.65;98850.41;4991355;28;20142;-61
2021/10/11 00:19:51;;;;;;;15.98;8.70;;;;;;;3.24;85.12;98845.28;4990752;28;20101;-60
2021/10/11 00:22:21;;;;;;;14.52;8.10;;;;;;;3.93;83.13;98849.59;4990302;28;20987;-61
2021/10/11 00:24:46;;;;;;;14.10;7.68;;;;;;;4.14;83.43;98846.16;4989579;28;20048;-61
2021/10/11 00:27:12;;;;;;;14.00;7.60;;;;;;;4.19;82.34;98840.97;4989804;28;20538;-62
2021/10/11 00:29:38;;;;;;;14.27;8.75;;;;;;;3.55;83.21;98849.59;4990141;28;20030;-61
2021/10/11 00:32:04;;;;;;;14.07;8.35;;;;;;;3.38;84.86;98847.88;4991567;28;20131;-62
2021/10/11 00:34:30;;;;;;;14.73;8.23;;;;;;;3.21;85.02;98844.41;4991421;28;20018;-63
2021/10/11 00:36:55;;;;;;;16.10;8.85;;;;;;;3.52;81.71;98845.31;4988260;28;20047;-61
2021/10/11 00:39:21;;;;;;;16.55;9.02;;;;;;;2.83;84.84;98840.88;4991358;28;20026;-63
2021/10/11 00:41:46;;;;;;;14.55;8.15;;;;;;;3.64;82.50;98835.00;4990872;28;20065;-60
2021/10/11 00:44:11;;;;;;;16.92;9.20;;;;;;;3.13;83.50;98835.81;4990139;28;20653;-60
2021/10/11 00:46:37;;;;;;;14.48;7.85;;;;;;;3.11;85.44;98843.53;4988100;28;20060;-62
2021/10/11 00:49:03;;;;;;;13.38;7.05;;;;;;;3.60;81.78;98845.31;4991429;28;20515;-61
2021/10/11 00:51:28;;;;;;;16.73;8.80;;;;;;;3.08;83.15;98841.78;4989493;28;20050;-64
2021/10/11 00:53:54;;;;;;;20.58;9.02;;;;;;;2.67;84.96;98841.66;4989517;28;20037;-62
2021/10/11 00:56:20;;;;;;;11.82;6.90;;;;;;;3.55;85.97;98837.59;4989927;28;20371;-62
2021/10/11 00:58:45;;;;;;;11.02;6.38;;;;;;;3.64;84.13;98832.44;4991096;28;20029;-62
2021/10/11 01:01:10;;;;;;;15.43;8.25;;;;;;;3.96;83.08;98822.94;4991497;28;20042;-62
2021/10/11 01:03:37;;;;;;;14.60;8.13;;;;;;;3.41;82.16;98831.53;4987031;28;20112;-63
2021/10/11 01:06:03;;;;;;;18.13;8.60;;;;;;;2.82;84.17;98822.84;4989970;28;20042;-62
2021/10/11 01:08:29;;;;;;;17.15;9.10;;;;;;;3.18;84.81;98823.75;4990503;28;20033;-61
2021/10/11 01:10:56;;;;;;;17.50;8.65;;;;;;;2.77;83.96;98822.81;4987683;28;20120;-63
2021/10/11 01:13:21;;;;;;;14.90;8.02;;;;;;;2.81;85.00;98814.25;4988363;28;20027;-61
2021/10/11 01:15:46;;;;;;;21.05;8.90;;;;;;;2.74;83.77;98816.78;4990139;28;20100;-62
2021/10/11 01:18:12;;;;;;;16.42;8.52;;;;;;;2.73;85.16;98815.91;4989743;28;20113;-61
2021/10/11 01:20:37;;;;;;;22.15;9.57;;;;;;;2.54;84.83;98814.13;4989086;28;20073;-61
2021/10/11 01:23:03;;;;;;;15.30;8.02;;;;;;;2.72;84.26;98819.38;4989996;28;20476;-65
2021/10/11 01:25:28;;;;;;;17.70;8.68;;;;;;;2.74;84.89;98817.66;4989819;28;20056;-64
2021/10/11 01:27:53;;;;;;;14.88;7.75;;;;;;;2.81;83.76;98821.97;4985444;28;20034;-62
2021/10/11 01:30:19;;;;;;;14.27;8.43;;;;;;;2.88;85.81;98815.97;4987742;28;20037;-62
2021/10/11 01:32:46;;;;;;;19.73;8.90;;;;;;;2.74;85.03;98807.34;4987363;28;20017;-63
2021/10/11 01:35:13;;;;;;;13.40;7.80;;;;;;;2.68;84.73;98805.63;4988546;28;20096;-62
2021/10/11 01:37:38;;;;;;;11.55;6.55;;;;;;;3.33;83.61;98813.50;4991647;28;20061;-61
2021/10/11 01:40:07;;;;;;;15.65;8.40;;;;;;;3.23;84.38;98807.44;4990413;28;20072;-58
2021/10/11 01:42:33;;;;;;;15.30;8.07;;;;;;;3.26;83.43;98807.47;4988170;28;20102;-60
2021/10/11 01:44:58;;;;;;;12.32;6.88;;;;;;;3.70;83.17;98805.75;4989598;28;20024;-61
2021/10/11 01:47:25;;;;;;;13.95;7.95;;;;;;;3.69;81.41;98805.75;4987007;28;20682;-62
2021/10/11 01:49:51;;;;;;;14.20;8.32;;;;;;;2.76;83.33;98815.94;4988979;28;20890;-60
2021/10/11 01:52:17;;;;;;;13.77;7.53;;;;;;;3.62;85.15;98805.78;4988346;28;20053;-62
2021/10/11 01:54:42;;;;;;;12.90;7.03;;;;;;;3.37;82.44;98801.47;4989255;28;20403;-62
2021/10/11 01:57:08;;;;;;;12.43;6.53;;;;;;;3.73;82.50;98792.88;4989520;28;20248;-62
2021/10/11 01:59:33;;;;;;;16.67;7.65;;;;;;;3.26;82.36;98789.41;4989027;28;20030;-63
2021/10/11 02:01:59;;;;;;;14.80;8.23;;;;;;;2.57;81.89;98788.38;4987110;28;20053;-60
2021/10/11 02:04:25;;;;;;;14.00;7.68;;;;;;;2.72;82.08;98787.56;4988562;28;20030;-63
2021/10/11 02:06:50;;;;;;;14.93;7.53;;;;;;;2.95;82.15;98797.97;4988942;28;20045;-61
2021/10/11 02:09:16;;;;;;;13.68;7.63;;;;;;;3.00;81.41;98796.25;4989323;28;20022;-60
2021/10/11 02:11:41;;;;;;;15.43;7.80;;;;;;;2.99;80.46;98797.09;4985880;28;20074;-60
2021/10/11 02:14:06;;;;;;;17.35;8.88;;;;;;;2.14;82.52;98791.63;4987160;28;20034;-60
2021/10/11 02:16:32;;;;;;;14.27;8.10;;;;;;;2.59;81.51;98802.13;4986471;28;20060;-61
2021/10/11 02:18:57;;;;;;;14.85;8.70;;;;;;;2.25;82.67;98791.69;4989720;28;20050;-63
2021/10/11 02:21:22;;;;;;;18.67;8.63;;;;;;;2.03;83.55;98789.00;4987024;28;20042;-61
2021/10/11 02:23:48;;;;;;;19.30;8.55;;;;;;;2.12;84.32;98776.16;4986616;28;20030;-60
2021/10/11 02:26:13;;;;;;;14.05;8.15;;;;;;;2.31;83.41;98777.09;4988103;28;20038;-62
2021/10/11 02:28:38;;;;;;;14.63;8.27;;;;;;;2.57;82.58;98783.22;4986880;28;20440;-62
2021/10/11 02:31:04;;;;;;;13.43;6.95;;;;;;;2.61;83.60;98777.22;4985250;28;20034;-60
2021/10/11 02:33:30;;;;;;;14.13;7.68;;;;;;;2.91;83.74;98783.34;4989973;28;20036;-60
2021/10/11 02:35:55;;;;;;;16.25;8.70;;;;;;;2.13;83.26;98769.31;4992005;28;20534;-61
2021/10/11 02:38:21;;;;;;;16.25;8.50;;;;;;;2.17;84.24;98768.50;4991103;28;20665;-59
2021/10/11 02:40:46;;;;;;;16.73;8.23;;;;;;;2.03;85.21;98759.84;4991884;28;20045;-60
2021/10/11 02:43:12;;;;;;;16.10;8.07;;;;;;;1.94;84.69;98758.06;4992373;28;20027;-60
2021/10/11 02:45:37;;;;;;;13.15;7.38;;;;;;;2.71;83.03;98760.97;4991304;28;20044;-60
2021/10/11 02:48:06;;;;;;;16.00;8.35;;;;;;;2.42;82.71;98764.28;4994225;28;20117;-61
2021/10/11 02:50:32;;;;;;;14.57;7.63;;;;;;;2.42;82.90;98760.88;4990827;28;20069;-61
2021/10/11 02:52:57;;;;;;;15.35;7.78;;;;;;;2.21;82.98;98764.22;4990290;28;20578;-60
2021/10/11 02:55:23;;;;;;;16.15;7.93;;;;;;;2.05;83.82;98758.97;4990694;28;20438;-61
2021/10/11 02:57:48;;;;;;;16.75;8.32;;;;;;;2.08;84.06;98771.88;4993339;28;20033;-62
2021/10/11 03:00:14;;;;;;;14.73;8.50;;;;;;;1.87;84.85;98769.16;4993748;28;20030;-61
2021/10/11 03:02:39;;;;;;;14.07;7.90;;;;;;;1.92;85.50;98770.06;4991911;28;20502;-60
2021/10/11 03:05:05;;;;;;;14.98;8.10;;;;;;;2.04;84.18;98772.72;4992995;28;20030;-62
2021/10/11 03:07:30;;;;;;;12.18;7.03;;;;;;;2.35;84.74;98767.69;4992483;28;20026;-62
2021/10/11 03:09:55;;;;;;;14.98;7.65;;;;;;;2.35;83.53;98762.53;4992604;28;20744;-61
2021/10/11 03:12:21;;;;;;;14.43;8.50;;;;;;;2.01;84.27;98757.25;4991376;28;20418;-61
2021/10/11 03:14:46;;;;;;;14.52;8.10;;;;;;;1.88;84.63;98770.91;4990584;28;20030;-62
2021/10/11 03:17:12;;;;;;;15.48;7.78;;;;;;;1.95;85.19;98766.63;4992410;28;20036;-61
2021/10/11 03:19:37;;;;;;;13.98;7.63;;;;;;;2.36;83.04;98764.28;4991955;28;20760;-59
2021/10/11 03:22:03;;;;;;;13.43;6.93;;;;;;;2.67;83.29;98760.09;4987963;28;20038;-60
2021/10/11 03:24:29;;;;;;;12.35;5.72;;;;;;;2.55;84.02;98756.63;4992047;28;20113;-61
2021/10/11 03:26:54;;;;;;;14.43;8.25;;;;;;;2.46;82.78;98766.03;4992209;28;20034;-59
2021/10/11 03:29:20;;;;;;;15.73;7.70;;;;;;;2.11;83.71;98766.75;4992308;28;20026;-59
2021/10/11 03:31:45;;;;;;;12.65;7.20;;;;;;;2.63;83.15;98762.66;4990173;28;20107;-62
2021/10/11 03:34:12;;;;;;;15.23;8.32;;;;;;;2.27;82.31;98769.38;4990742;28;20030;-58
2021/10/11 03:36:38;;;;;;;15.18;8.13;;;;;;;1.98;83.44;98762.38;4990815;28;20121;-58
2021/10/11 03:39:04;;;;;;;13.40;8.10;;;;;;;1.69;84.38;98757.91;4991790;28;20033;-61
2021/10/11 03:41:29;;;;;;;16.17;8.25;;;;;;;1.92;85.03;98762.34;4988734;28;20042;-59
2021/10/11 03:43:55;;;;;;;17.45;8.43;;;;;;;2.04;84.85;98761.53;4990333;28;20026;-61
2021/10/11 03:46:20;;;;;;;16.70;9.30;;;;;;;2.36;82.80;98748.81;4991282;28;20097;-60
2021/10/11 03:48:45;;;;;;;16.23;8.43;;;;;;;2.19;84.83;98750.44;4992551;28;20021;-60
2021/10/11 03:51:11;;;;;;;20.30;9.07;;;;;;;2.07;83.83;98752.13;4992317;28;20047;-61
2021/10/11 03:53:37;;;;;;;16.30;9.05;;;;;;;1.92;84.32;98757.19;4991576;28;20030;-61
2021/10/11 03:56:03;;;;;;;12.65;6.60;;;;;;;2.28;82.66;98751.38;4988906;28;20053;-61
2021/10/11 03:58:29;;;;;;;13.68;7.32;;;;;;;2.75;81.75;98752.38;4990958;28;20034;-62
2021/10/11 04:00:54;;;;;;;17.23;9.27;;;;;;;2.24;82.56;98754.78;4993084;28;20535;-61
2021/10/11 04:03:19;;;;;;;16.13;8.50;;;;;;;2.21;82.52;98754.78;4992433;28;20062;-62
2021/10/11 04:05:44;;;;;;;15.65;9.10;;;;;;;1.97;84.28;98750.38;4990844;28;20108;-60
2021/10/11 04:08:14;;;;;;;15.27;8.73;;;;;;;1.93;83.21;98749.50;4990552;28;20097;-62
2021/10/11 04:10:57;;;;;;;18.08;8.95;;;;;;;1.86;84.52;98742.59;4999237;28;20046;-60
2021/10/11 04:13:23;;;;;;;16.70;8.48;;;;;;;1.66;84.18;98729.59;4989375;28;20014;-63
2021/10/11 04:15:48;;;;;;;17.67;8.88;;;;;;;1.56;85.07;98727.81;4989561;28;20053;-63
2021/10/11 04:18:15;;;;;;;16.73;8.48;;;;;;;1.50;85.49;98722.63;4988075;28;20653;-63
2021/10/11 04:20:41;;;;;;;14.77;7.25;;;;;;;2.10;84.14;98721.25;4989767;28;20062;-61
2021/10/11 04:23:06;;;;;;;15.68;8.00;;;;;;;2.20;82.67;98711.84;4991408;28;20057;-63
2021/10/11 04:25:32;;;;;;;14.98;8.88;;;;;;;1.91;83.54;98709.16;4989633;28;20046;-63
2021/10/11 04:27:57;;;;;;;18.88;8.50;;;;;;;1.82;83.59;98711.66;4990505;28;20085;-61
2021/10/11 04:30:22;;;;;;;16.92;8.52;;;;;;;1.47;85.65;98714.88;4989548;28;20041;-62
2021/10/11 04:32:48;;;;;;;16.10;8.18;;;;;;;1.48;85.78;98711.47;4992226;28;20022;-60
2021/10/11 04:35:13;;;;;;;14.23;8.13;;;;;;;1.80;85.99;98714.25;4992201;28;20025;-63
2021/10/11 04:37:40;;;;;;;19.02;8.93;;;;;;;1.74;85.47;98702.19;4989291;28;20011;-61
2021/10/11 04:40:07;;;;;;;16.23;7.93;;;;;;;1.61;84.94;98695.28;4989852;28;20046;-61
2021/10/11 04:42:32;;;;;;;13.50;7.60;;;;;;;1.71;84.16;98691.06;4989117;28;20054;-62
2021/10/11 04:44:57;;;;;;;14.80;7.95;;;;;;;1.92;83.73;98695.44;4990817;28;20614;-61
2021/10/11 04:47:23;;;;;;;17.58;8.25;;;;;;;1.78;84.15;98694.50;4989371;28;20034;-61
2021/10/11 04:49:48;;;;;;;15.18;8.50;;;;;;;1.63;85.50;98693.56;4991391;28;20034;-61
2021/10/11 04:52:13;;;;;;;16.38;8.48;;;;;;;1.97;83.55;98693.75;4988649;28;20048;-62
2021/10/11 04:54:39;;;;;;;18.17;8.73;;;;;;;2.07;83.82;98684.34;4990797;28;20092;-60
2021/10/11 04:57:04;;;;;;;18.77;8.50;;;;;;;1.92;83.31;98701.44;4990216;28;20065;-61
2021/10/11 04:59:29;;;;;;;16.10;8.20;;;;;;;1.35;84.79;98718.25;4992167;28;20026;-62
2021/10/11 05:01:55;;;;;;;15.18;8.07;;;;;;;1.40;85.06;98720.84;4989932;28;20037;-62
2021/10/11 05:04:20;;;;;;;14.25;7.93;;;;;;;1.20;85.99;98719.00;4992732;28;20026;-60
2021/10/11 05:06:45;;;;;;;13.73;7.43;;;;;;;1.96;82.55;98722.91;4992703;28;20048;-62
2021/10/11 05:09:11;;;;;;;16.35;8.32;;;;;;;1.41;85.13;98727.72;4992032;28;20034;-62
2021/10/11 05:11:36;;;;;;;13.95;7.75;;;;;;;1.23;85.91;98729.31;4992756;28;20066;-62
2021/10/11 05:14:01;;;;;;;13.65;7.50;;;;;;;1.11;86.59;98729.19;4991935;28;20558;-60
2021/10/11 05:16:27;;;;;;;16.67;7.95;;;;;;;1.14;87.24;98745.50;4992955;28;20072;-62
2021/10/11 05:18:53;;;;;;;13.93;7.57;;;;;;;1.16;85.63;98737.81;4995165;28;20025;-61
2021/10/11 05:21:18;;;;;;;14.95;7.65;;;;;;;1.29;85.01;98733.63;4987799;28;20198;-61
2021/10/11 05:23:44;;;;;;;15.15;8.13;;;;;;;1.04;85.43;98735.97;4990802;28;20033;-59
2021/10/11 05:26:09;;;;;;;16.55;8.35;;;;;;;1.05;85.49;98752.25;4990902;28;20113;-62
2021/10/11 05:28:34;;;;;;;17.42;8.07;;;;;;;0.72;87.08;98756.22;4994298;28;20037;-61
2021/10/11 05:31:00;;;;;;;14.45;8.07;;;;;;;1.06;87.19;98752.25;4991185;28;20049;-62
2021/10/11 05:33:25;;;;;;;17.08;7.85;;;;;;;1.61;86.63;98751.84;4991302;28;20113;-60
2021/10/11 05:35:53;;;;;;;18.90;7.60;;;;;;;1.82;84.05;98753.72;4994520;28;21227;-62
2021/10/11 05:38:19;;;;;;;18.38;9.00;;;;;;;1.37;85.91;98756.81;4991913;28;20053;-59
2021/10/11 05:40:46;;;;;;;16.88;7.65;;;;;;;2.16;84.86;98765.91;4990810;28;20046;-63
2021/10/11 05:43:11;;;;;;;15.80;8.55;;;;;;;1.58;85.32;98782.69;4990970;28;20061;-61
2021/10/11 05:45:37;;;;;;;13.27;7.38;;;;;;;2.13;84.63;98779.59;4989964;28;20474;-62
2021/10/11 05:48:03;;;;;;;17.10;9.45;;;;;;;1.77;84.93;98782.84;4993295;28;20057;-63
2021/10/11 05:50:29;;;;;;;18.02;9.35;;;;;;;2.16;83.40;98777.06;4990643;28;20128;-62
2021/10/11 05:52:54;;;;;;;20.13;9.02;;;;;;;2.33;83.16;98774.56;4992651;28;20435;-61
2021/10/11 05:55:19;;;;;;;16.83;9.65;;;;;;;2.49;83.77;98766.03;4991386;28;20104;-61
2021/10/11 05:57:45;;;;;;;22.48;10.60;;;;;;;2.54;83.76;98778.06;4989822;28;20176;-63
2021/10/11 06:00:10;;;;;;;21.30;10.80;;;;;;;2.78;81.68;98773.00;4989451;28;20034;-62
2021/10/11 06:02:36;;;;;;;21.17;10.38;;;;;;;2.85;82.01;98774.75;4990855;28;20038;-62
2021/10/11 06:05:02;;;;;;;17.90;9.35;;;;;;;2.79;82.78;98789.31;4989690;28;20050;-63
2021/10/11 06:07:28;;;;;;;16.88;8.88;;;;;;;2.79;83.87;98795.31;4990581;28;20042;-63
2021/10/11 06:09:54;;;;;;;18.00;9.35;;;;;;;2.86;83.59;98798.78;4990014;28;20377;-62
2021/10/11 06:12:20;;;;;;;18.15;9.35;;;;;;;3.21;82.68;98796.28;4991713;28;20037;-62
2021/10/11 06:14:45;;;;;;;20.63;9.63;;;;;;;3.34;83.36;98801.44;4990551;28;20018;-63
2021/10/11 06:17:10;;;;;;;18.05;9.02;;;;;;;3.05;82.74;98802.25;4992220;28;20378;-61
2021/10/11 06:19:36;;;;;;;20.25;9.88;;;;;;;4.64;87.92;98796.06;4992770;28;20029;-64
2021/10/11 06:22:01;;;;;;;85.88;12.38;;;;;;;5.96;84.60;98788.28;4991128;28;20049;-61
2021/10/11 06:24:26;;;;;;;25.08;10.35;;;;;;;5.93;83.13;98786.53;4992832;28;20033;-64
2021/10/11 06:26:52;;;;;;;16.85;9.13;;;;;;;5.89;78.77;98791.75;4992810;28;20050;-64
2021/10/11 06:29:17;;;;;;;15.30;8.68;;;;;;;6.22;81.45;98790.59;4991287;28;20114;-62
2021/10/11 06:31:43;;;;;;;23.55;9.43;;;;;;;7.35;79.44;98795.16;4992692;28;20042;-63
2021/10/11 06:34:08;;;;;;;14.88;8.77;;;;;;;6.25;80.96;98795.75;4991593;28;20041;-62
2021/10/11 06:36:36;;;;;;;17.77;9.38;;;;;;;6.78;75.26;98802.91;4992472;28;20162;-62
2021/10/11 06:39:05;;;;;;;16.77;8.25;;;;;;;6.22;76.09;98800.97;4992560;28;20146;-64
2021/10/11 06:41:30;;;;;;;13.77;8.13;;;;;;;6.60;75.87;98807.44;4988788;28;20042;-63
2021/10/11 06:43:56;;;;;;;18.60;8.15;;;;;;;8.09;72.60;98794.81;4992109;28;20089;-62
2021/10/11 06:46:21;;;;;;;14.13;7.90;;;;;;;6.42;73.63;98781.75;4991430;28;20185;-64
2021/10/11 06:48:47;;;;;;;17.67;8.30;;;;;;;6.64;73.88;98788.38;4993803;28;20056;-65
2021/10/11 06:51:12;;;;;;;13.32;8.18;;;;;;;7.31;72.52;98796.94;4990601;28;20061;-64
2021/10/11 06:53:37;;;;;;;15.02;7.72;;;;;;;7.66;73.92;98802.47;4994180;28;20033;-63
2021/10/11 06:56:04;;;;;;;12.63;7.45;;;;;;;7.24;69.19;98795.34;4991149;28;20039;-62
2021/10/11 06:58:30;;;;;;;14.85;8.07;;;;;;;7.15;70.73;98790.31;4991534;28;20117;-64
2021/10/11 07:00:55;;;;;;;14.38;8.23;;;;;;;6.40;70.95;98791.28;4989325;28;20116;-63
2021/10/11 07:03:24;;;;;;;14.63;8.32;;;;;;;6.23;72.03;98797.50;4989759;28;20103;-62
2021/10/11 07:06:00;;;;;;;15.82;7.90;;;;;;;6.40;72.03;98786.09;4993188;28;20092;-65
2021/10/11 07:08:26;;;;;;;15.30;7.93;;;;;;;6.73;72.24;98792.59;4993720;28;20026;-64
2021/10/11 07:10:54;;;;;;;17.23;8.30;;;;;;;7.22;71.79;98789.31;4992280;28;20904;-63
2021/10/11 07:13:23;;;;;;;14.75;7.90;;;;;;;6.31;72.06;98790.50;4992532;28;20433;-65
2021/10/11 07:15:49;;;;;;;12.93;8.02;;;;;;;6.80;71.49;98798.53;5000160;28;20136;-62
2021/10/11 07:18:15;;;;;;;13.20;8.50;;;;;;;7.27;71.19;98794.44;4993067;28;20180;-64
2021/10/11 07:20:43;;;;;;;14.85;7.97;;;;;;;8.78;67.84;98786.56;4992700;28;20477;-62
2021/10/11 07:23:13;;;;;;;14.55;7.90;;;;;;;9.31;65.72;98791.47;4997565;28;20070;-62
2021/10/11 07:25:42;;;;;;;15.88;7.57;;;;;;;10.11;62.96;98792.97;4994889;28;20141;-63
2021/10/11 07:28:08;;;;;;;14.57;7.18;;;;;;;12.25;59.79;98785.59;4995348;28;20776;-62
2021/10/11 07:30:33;;;;;;;14.68;7.28;;;;;;;12.56;57.24;98790.59;4994964;28;20527;-63
2021/10/11 07:33:00;;;;;;;10.00;6.82;;;;;;;13.97;53.16;98781.59;4994127;28;20173;-64
2021/10/11 07:35:26;;;;;;;12.43;6.82;;;;;;;15.07;50.98;98782.88;4991236;28;20085;-62
2021/10/11 07:37:51;;;;;;;11.65;7.05;;;;;;;15.59;49.03;98776.91;4995425;28;20029;-62
2021/10/11 07:40:18;;;;;;;12.52;7.13;;;;;;;15.05;49.07;98779.47;4991948;28;20053;-62
2021/10/11 07:42:43;;;;;;;12.55;7.20;;;;;;;15.02;49.05;98790.13;4993919;28;20022;-62
2021/10/11 07:45:09;;;;;;;13.32;7.22;;;;;;;15.04;48.00;98790.91;4991418;28;20085;-62
2021/10/11 07:47:34;;;;;;;10.90;6.70;;;;;;;16.42;46.88;98785.03;4994848;28;20108;-62
2021/10/11 07:50:00;;;;;;;12.25;7.47;;;;;;;17.10;45.10;98783.13;4994278;28;20045;-62
2021/10/11 07:52:25;;;;;;;12.70;7.40;;;;;;;17.13;45.08;98788.25;4993172;28;20045;-63
2021/10/11 07:54:50;;;;;;;12.02;7.45;;;;;;;17.39;44.75;98785.94;4993572;28;20057;-63
2021/10/11 07:57:16;;;;;;;13.68;7.75;;;;;;;15.55;47.00;98801.63;4992061;28;20436;-62
2021/10/11 07:59:41;;;;;;;12.23;7.80;;;;;;;17.94;43.18;98794.28;4993149;28;20026;-62
2021/10/11 08:02:06;;;;;;;13.02;7.93;;;;;;;17.37;44.23;98793.09;4990954;28;20104;-64
2021/10/11 08:04:32;;;;;;;14.65;8.30;;;;;;;15.44;47.37;98807.44;4995155;28;20106;-62
2021/10/11 08:06:57;;;;;;;13.55;7.95;;;;;;;14.19;51.69;98825.25;4994777;28;20044;-63
2021/10/11 08:09:22;;;;;;;16.30;8.55;;;;;;;14.88;50.08;98824.06;4997868;28;20110;-61
2021/10/11 08:11:48;;;;;;;15.20;8.35;;;;;;;15.16;49.94;98818.38;5000901;28;20124;-62
2021/10/11 08:14:13;;;;;;;13.93;8.65;;;;;;;16.28;48.32;98815.53;4993652;28;20507;-64
2021/10/11 08:16:40;;;;;;;14.68;8.60;;;;;;;14.75;50.80;98824.59;4991257;28;20041;-63
2021/10/11 08:19:07;;;;;;;13.02;8.90;;;;;;;15.75;48.37;98821.72;4992162;28;20033;-62
2021/10/11 08:21:32;;;;;;;15.65;9.23;;;;;;;16.11;48.20;98810.31;4992566;28;20820;-63
2021/10/11 08:23:59;;;;;;;15.10;8.88;;;;;;;15.76;49.01;98797.13;4992724;28;20026;-62
2021/10/11 08:26:25;;;;;;;14.63;8.93;;;;;;;17.40;46.59;98797.34;4992545;28;20046;-63
2021/10/11 08:28:51;;;;;;;17.33;9.02;;;;;;;15.81;48.87;98805.66;4995131;28;20037;-64
2021/10/11 08:31:16;;;;;;;16.83;9.35;;;;;;;15.23;50.31;98798.75;4991081;28;20034;-63
2021/10/11 08:33:42;;;;;;;14.80;9.73;;;;;;;14.64;51.04;98795.34;4992699;28;20027;-62
2021/10/11 08:36:07;;;;;;;19.83;10.02;;;;;;;14.53;51.37;98787.06;4992298;28;20041;-63
2021/10/11 08:38:33;;;;;;;16.10;10.25;;;;;;;13.86;53.50;98789.91;4992036;28;20507;-61
2021/10/11 08:40:58;;;;;;;16.45;9.20;;;;;;;14.90;51.71;98785.44;4992654;28;20042;-62
2021/10/11 08:43:24;;;;;;;14.23;9.00;;;;;;;13.82;53.97;98775.25;4993807;28;20034;-62
2021/10/11 08:45:50;;;;;;;13.18;10.00;;;;;;;14.17;52.60;98779.88;4990245;28;20046;-61
2021/10/11 08:48:16;;;;;;;16.35;10.15;;;;;;;14.10;54.58;98781.06;4992200;28;20114;-61
2021/10/11 08:50:41;;;;;;;15.18;9.60;;;;;;;16.04;48.50;98777.34;4990792;28;20038;-60
2021/10/11 08:53:09;;;;;;;16.95;9.63;;;;;;;13.88;53.03;98774.13;4991517;28;20030;-60
2021/10/11 08:55:35;;;;;;;14.90;9.45;;;;;;;14.88;51.47;98782.88;4991661;28;20046;-60
2021/10/11 08:58:07;;;;;;;14.80;9.18;;;;;;;16.27;47.58;98782.28;4989711;28;20085;-61
2021/10/11 09:00:38;;;;;;;15.75;9.13;;;;;;;19.04;44.04;98771.75;4991486;28;20791;-60
2021/10/11 09:03:05;;;;;;;18.13;8.90;;;;;;;17.99;44.79;98768.47;4993161;28;20057;-60
2021/10/11 09:05:33;;;;;;;18.90;9.82;;;;;;;16.90;47.26;98770.22;4989181;28;20675;-61
2021/10/11 09:08:07;;;;;;;20.77;8.77;;;;;;;18.74;43.46;98768.34;4991258;28;20018;-62
2021/10/11 09:10:56;;;;;;;18.88;8.90;;;;;;;19.83;41.38;98761.38;4990654;28;20124;-63
2021/10/11 09:13:48;;;;;;;16.15;9.25;;;;;;;18.82;42.23;98756.38;4992058;28;20034;-63
2021/10/11 09:16:39;;;;;;;16.30;8.57;;;;;;;18.13;43.72;98757.09;4988870;28;20044;-62
2021/10/11 09:19:15;;;;;;;15.05;8.70;;;;;;;20.86;39.81;98756.97;4993197;28;20030;-62
2021/10/11 09:21:41;;;;;;;13.05;8.60;;;;;;;21.31;39.11;98759.91;4990813;28;20058;-61
2021/10/11 09:24:17;;;;;;;12.55;9.15;;;;;;;19.80;41.37;98754.50;4989120;28;20064;-63
2021/10/11 09:26:47;;;;;;;14.02;8.50;;;;;;;19.44;40.93;98753.28;4989129;28;20070;-62
2021/10/11 09:29:28;;;;;;;13.50;8.20;;;;;;;19.81;40.28;98750.03;4992259;28;20922;-64
2021/10/11 09:31:53;;;;;;;15.65;8.48;;;;;;;21.15;38.02;98748.69;5004102;28;20042;-64
2021/10/11 09:34:20;;;;;;;12.88;8.23;;;;;;;19.43;40.02;98751.59;4991490;28;20032;-62
2021/10/11 09:37:15;;;;;;;17.20;8.57;;;;;;;18.14;42.42;98762.28;4988326;28;20121;-62
2021/10/11 09:39:41;;;;;;;12.07;8.30;;;;;;;19.49;39.88;98760.09;4981681;28;20581;-63
2021/10/11 09:42:13;;;;;;;14.02;8.95;;;;;;;18.88;41.80;98757.81;4991650;28;20038;-61
2021/10/11 09:44:39;;;;;;;13.73;7.93;;;;;;;19.78;40.40;98755.56;4994634;28;20034;-62
2021/10/11 09:47:09;;;;;;;12.95;8.50;;;;;;;17.67;42.86;98757.97;4988434;28;20518;-61
2021/10/11 09:49:36;;;;;;;12.85;8.68;;;;;;;19.64;40.20;98759.06;4988013;28;20030;-61
2021/10/11 09:52:02;;;;;;;16.98;8.75;;;;;;;20.65;37.62;98750.53;4991515;28;20408;-61
2021/10/11 09:54:27;;;;;;;16.13;8.43;;;;;;;21.51;36.30;98754.97;4989543;28;20786;-62
2021/10/11 09:56:53;;;;;;;14.43;8.95;;;;;;;17.28;40.50;98754.06;4988572;28;20096;-62
2021/10/11 09:59:19;;;;;;;17.27;9.10;;;;;;;18.08;41.38;98752.09;4989682;28;20025;-63
2021/10/11 10:01:46;;;;;;;15.25;8.90;;;;;;;18.45;40.90;98752.50;4988468;28;20038;-62
2021/10/11 10:04:20;;;;;;;15.73;8.80;;;;;;;18.10;40.21;98743.16;4988933;28;20030;-63
2021/10/11 10:06:46;;;;;;;12.65;7.65;;;;;;;17.72;42.66;98737.47;4990382;28;20043;-62
2021/10/11 10:09:13;;;;;;;14.90;8.25;;;;;;;18.98;40.04;98729.81;4990331;28;20026;-62
2021/10/11 10:11:39;;;;;;;17.67;8.77;;;;;;;18.73;39.92;98729.63;4990502;28;20124;-61
2021/10/11 10:14:06;;;;;;;15.10;8.20;;;;;;;20.22;37.80;98720.75;4990780;28;20026;-61
2021/10/11 10:16:32;;;;;;;17.15;8.02;;;;;;;20.42;37.62;98719.38;4988460;28;20062;-64
2021/10/11 10:19:08;;;;;;;13.65;8.00;;;;;;;18.19;41.17;98722.41;4988558;28;20571;-62
2021/10/11 10:21:33;;;;;;;15.38;8.85;;;;;;;20.00;37.52;98717.88;4989974;28;20050;-61
2021/10/11 10:23:59;;;;;;;13.98;8.80;;;;;;;18.43;40.90;98717.41;4989018;28;20377;-63
2021/10/11 10:26:27;;;;;;;11.95;7.93;;;;;;;19.23;39.70;98707.94;4989568;28;20042;-61
2021/10/11 10:28:54;;;;;;;14.20;8.45;;;;;;;18.65;41.10;98717.75;4990157;28;20531;-63
2021/10/11 10:31:28;;;;;;;13.10;8.55;;;;;;;18.20;43.13;98722.31;4989357;28;20046;-63
2021/10/11 10:33:54;;;;;;;16.52;8.60;;;;;;;19.23;40.83;98721.16;4989388;28;20022;-61
2021/10/11 10:36:24;;;;;;;18.17;9.80;;;;;;;18.48;41.56;98723.25;4988725;28;20039;-61
2021/10/11 10:39:02;;;;;;;17.25;9.35;;;;;;;18.80;41.91;98723.03;4990422;28;20116;-63
2021/10/11 10:41:29;;;;;;;15.70;9.27;;;;;;;19.04;41.88;98713.59;4988961;28;20045;-64
2021/10/11 10:43:55;;;;;;;15.13;9.80;;;;;;;18.74;41.64;98715.50;4989676;28;20165;-60
2021/10/11 10:46:20;;;;;;;14.68;9.02;;;;;;;17.78;44.69;98705.44;4986575;28;20042;-62
2021/10/11 10:48:53;;;;;;;16.90;9.60;;;;;;;17.37;44.00;98700.81;4989436;28;20054;-62
2021/10/11 10:51:20;;;;;;;20.13;9.60;;;;;;;16.97;44.86;98684.63;4989518;28;20602;-61
2021/10/11 10:53:58;;;;;;;17.27;10.23;;;;;;;18.06;43.34;98675.63;4992122;28;20075;-61
2021/10/11 10:56:24;;;;;;;17.08;9.35;;;;;;;19.81;40.58;98662.69;4990629;28;20048;-60
2021/10/11 10:59:03;;;;;;;12.98;7.68;;;;;;;18.86;42.70;98668.03;4993038;28;20892;-64
2021/10/11 11:01:29;;;;;;;15.68;9.10;;;;;;;17.51;45.25;98671.81;4992082;28;20136;-64
2021/10/11 11:03:54;;;;;;;14.85;8.38;;;;;;;17.95;44.80;98669.31;4994098;28;20447;-61
2021/10/11 11:06:30;;;;;;;13.65;8.20;;;;;;;18.50;43.47;98673.81;4991962;28;20042;-63
2021/10/11 11:08:57;;;;;;;18.00;8.80;;;;;;;17.15;45.67;98680.94;4994841;28;20064;-63
2021/10/11 11:11:23;;;;;;;15.13;9.02;;;;;;;17.86;45.42;98670.69;4994372;28;20050;-60
2021/10/11 11:13:54;;;;;;;18.80;9.73;;;;;;;18.14;44.80;98676.94;4990010;28;20080;-63
2021/10/11 11:16:30;;;;;;;15.85;9.15;;;;;;;17.49;46.23;98671.06;4993113;28;20068;-60
2021/10/11 11:18:59;;;;;;;16.45;8.90;;;;;;;17.84;46.09;98673.38;4994525;28;20030;-61
2021/10/11 11:21:26;;;;;;;17.38;9.82;;;;;;;18.41;44.55;98671.75;4992820;28;20062;-62
2021/10/11 11:23:51;;;;;;;14.40;9.35;;;;;;;17.73;45.79;98675.81;4997458;28;20141;-60
2021/10/11 11:26:17;;;;;;;21.80;10.30;;;;;;;17.21;47.05;98678.88;4996101;28;20739;-64